Hertfordshire — ZDJS5 — position and weather

sailwx.info

Track history (hours):
 
Tides and Currents Weather Stations Pressure Air Temp Water Temp Dewpoint Dewpoint Depression Visibility Wind Speed Wind Dir Waves Ship Positions

Hertfordshire

Last reported at 2015-Sep-04 16:34 UTC. Time now 2015-Sep-04 16:39 UTC.
Position N 53°33' W 003°22'.

Length 83 m; draft 3.6 m.

Type: Cargo ship. MMSI: 236563000.

Date/timePositionNaut miles runAvg speedWind from/ knotsBaromVisibWave heightAir tempDewpointWater temp
2015-Sep-04 16:34N 53°33' W 003°22'10 9.7
2015-Sep-04 15:33N 53°31' W 003°06'9 8.7
2015-Sep-04 14:33N 53°23' W 002°60'4 4.2
2015-Sep-04 13:33N 53°19' W 002°57'6 5.6
2015-Sep-04 12:33N 53°18' W 002°48'3 3.0
2015-Sep-04 11:30N 53°20' W 002°45'0 0.0
2015-Sep-04 10:30N 53°20' W 002°45'0 0.0
2015-Sep-04 09:30N 53°20' W 002°45'0 0.0
2015-Sep-04 08:33N 53°20' W 002°45'0 0.0
2015-Sep-04 07:33N 53°20' W 002°45'0 0.0
2015-Sep-04 06:33N 53°20' W 002°45'0 0.0
2015-Sep-04 05:33N 53°20' W 002°45'0 0.0
2015-Sep-04 04:33N 53°20' W 002°45'0 0.0
2015-Sep-04 03:33N 53°20' W 002°45'0 0.0
2015-Sep-04 02:33N 53°20' W 002°45'0 0.0
2015-Sep-04 01:33N 53°20' W 002°45'0 0.0
2015-Sep-04 00:30N 53°20' W 002°45'0 0.0
2015-Sep-03 23:33N 53°20' W 002°45'0 0.0
2015-Sep-03 22:33N 53°20' W 002°45'0 0.0
2015-Sep-03 21:30N 53°20' W 002°45'0 0.0
2015-Sep-03 20:33N 53°20' W 002°45'0 0.0
2015-Sep-03 19:33N 53°20' W 002°45'0 0.0
2015-Sep-03 18:33N 53°20' W 002°45'0 0.0
2015-Sep-03 17:30N 53°20' W 002°45'0 0.0
2015-Sep-03 16:33N 53°20' W 002°45'0 0.0
2015-Sep-03 15:33N 53°20' W 002°45'0 0.0
2015-Sep-03 14:33N 53°20' W 002°45'0 0.1
2015-Sep-03 13:33N 53°20' W 002°45'0 0.0
2015-Sep-03 12:33N 53°20' W 002°45'0 0.0
2015-Sep-03 11:30N 53°20' W 002°45'0 0.0
2015-Sep-03 10:33N 53°20' W 002°45'0 0.0
2015-Sep-03 09:33N 53°20' W 002°45'0 0.0
2015-Sep-03 08:33N 53°20' W 002°45'0 0.0
2015-Sep-03 07:33N 53°20' W 002°45'1 1.3
2015-Sep-03 06:33N 53°19' W 002°45'5 5.4
2015-Sep-03 05:33N 53°18' W 002°54'3 2.9
2015-Sep-03 04:33N 53°20' W 002°57'3 2.8
2015-Sep-03 03:33N 53°22' W 002°59'6 5.7
2015-Sep-03 02:34N 53°28' W 003°03'8 8.0
2015-Sep-03 01:33N 53°31' W 003°15'8 7.7
2015-Sep-03 00:33N 53°31' W 003°28'9 8.8
2015-Sep-02 23:33N 53°32' W 003°43'8 8.4
2015-Sep-02 22:32N 53°38' W 003°53'1 0.7
2015-Sep-02 21:33N 53°37' W 003°53'4 3.7
2015-Sep-02 20:33N 53°34' W 003°49'57 8.2
2015-Sep-02 13:32N 54°12' W 005°02'1010.2
2015-Sep-02 12:32N 54°22' W 005°10'1111.2
2015-Sep-02 11:34N 54°31' W 005°18'1212.2
2015-Sep-02 10:34N 54°42' W 005°27'1312.7
2015-Sep-02 09:33N 54°53' W 005°38'1511.8
2015-Sep-02 08:15N 55°07' W 005°51'710.7
2015-Sep-02 07:33N 55°13' W 005°58'8 8.4
2015-Sep-02 06:33N 55°20' W 006°06'7 6.7
2015-Sep-02 05:33N 55°23' W 006°17'7 7.3
2015-Sep-02 04:33N 55°29' W 006°24'7 6.6
2015-Sep-02 03:33N 55°34' W 006°31'6 6.1
2015-Sep-02 02:33N 55°40' W 006°34'6 5.7
2015-Sep-02 01:33N 55°46' W 006°33'5 0.2
2015-Sep-01 01:11N 55°51' W 006°31'710.9
2015-Sep-01 00:33N 55°44' W 006°33'1110.7
2015-Aug-31 23:33N 55°34' W 006°25'9 8.9
2015-Aug-31 22:33N 55°29' W 006°13'7 7.3
2015-Aug-31 21:33N 55°24' W 006°03'6 6.0
2015-Aug-31 20:33N 55°20' W 005°56'6 6.2
2015-Aug-31 19:33N 55°14' W 005°51'19 9.3
2015-Aug-31 17:33N 54°56' W 005°41'1110.9
2015-Aug-31 16:33N 54°46' W 005°39'10 9.7
2015-Aug-31 15:33N 54°39' W 005°51'3 0.8
2015-Aug-31 12:30N 54°37' W 005°54'0 0.0
2015-Aug-31 10:15N 54°37' W 005°54'0 0.0
2015-Aug-30 07:06N 54°37' W 005°54'0 0.0
2015-Aug-30 03:21N 54°37' W 005°54'0 0.0
2015-Aug-30 02:33N 54°37' W 005°54'0 0.0
2015-Aug-29 19:21N 54°37' W 005°54'0 0.0
2015-Aug-29 15:06N 54°37' W 005°54'0 0.0
2015-Aug-29 14:21N 54°37' W 005°54'0 0.0
2015-Aug-29 13:33N 54°37' W 005°54'0 0.0
2015-Aug-29 07:18N 54°37' W 005°54'0 0.0
2015-Aug-29 02:22N 54°37' W 005°54'0 0.0
2015-Aug-28 22:33N 54°37' W 005°54'8 8.3
2015-Aug-28 21:33N 54°42' W 005°43'3 2.6
2015-Aug-28 20:33N 54°40' W 005°40'0 0.0
2015-Aug-28 19:33N 54°40' W 005°40'0 0.0
2015-Aug-28 18:27N 54°40' W 005°40'0 0.0
2015-Aug-28 17:27N 54°40' W 005°40'0 0.0
2015-Aug-28 16:33N 54°40' W 005°40'0 0.0
2015-Aug-28 15:30N 54°40' W 005°40'0 0.0
2015-Aug-28 14:33N 54°40' W 005°40'0 0.0
2015-Aug-28 13:33N 54°40' W 005°40'0 0.0
2015-Aug-28 12:30N 54°40' W 005°40'0 0.0
2015-Aug-28 11:30N 54°40' W 005°40'0 0.0
2015-Aug-28 10:30N 54°40' W 005°40'0 0.0
2015-Aug-28 09:30N 54°40' W 005°40'0 0.0
2015-Aug-28 08:33N 54°40' W 005°40'0 0.0
2015-Aug-28 07:33N 54°40' W 005°40'0 0.0
2015-Aug-28 06:33N 54°40' W 005°40'0 0.0
2015-Aug-28 05:33N 54°40' W 005°40'0 0.0
2015-Aug-28 04:33N 54°40' W 005°40'0 0.0
2015-Aug-28 03:33N 54°40' W 005°40'0 0.0
2015-Aug-28 02:33N 54°40' W 005°40'0 0.0
2015-Aug-28 01:32N 54°40' W 005°40'0 0.0
2015-Aug-28 00:31N 54°40' W 005°40'0 0.0
2015-Aug-27 23:32N 54°40' W 005°40'0 0.0
2015-Aug-27 22:32N 54°40' W 005°40'0 0.0
2015-Aug-27 21:29N 54°40' W 005°40'0 0.0
2015-Aug-27 20:28N 54°40' W 005°40'0 0.0
2015-Aug-27 19:32N 54°40' W 005°40'0 0.0
2015-Aug-27 18:29N 54°40' W 005°40'0 0.0
2015-Aug-27 17:32N 54°40' W 005°40'0 0.0
2015-Aug-27 16:32N 54°40' W 005°40'0 0.1
2015-Aug-27 15:28N 54°40' W 005°40'0 0.1
2015-Aug-27 14:32N 54°40' W 005°40'0 0.0
2015-Aug-27 13:32N 54°40' W 005°40'0 0.0
2015-Aug-27 12:32N 54°40' W 005°40'0 0.0
2015-Aug-27 11:32N 54°40' W 005°40'0 0.0
2015-Aug-27 10:32N 54°40' W 005°40'0 0.0
2015-Aug-27 09:32N 54°40' W 005°40'0 0.0
2015-Aug-27 08:31N 54°40' W 005°40'0 0.0
2015-Aug-27 07:31N 54°40' W 005°40'0 0.0
2015-Aug-27 06:29N 54°40' W 005°40'0 0.0
2015-Aug-27 05:31N 54°40' W 005°40'0 0.0
2015-Aug-27 04:31N 54°40' W 005°40'0 0.0
2015-Aug-27 03:31N 54°40' W 005°40'0 0.1
2015-Aug-27 02:31N 54°40' W 005°40'0 0.0
2015-Aug-27 01:31N 54°40' W 005°40'0 0.0
2015-Aug-27 00:28N 54°40' W 005°40'0 0.0
2015-Aug-26 23:31N 54°40' W 005°40'0 0.0
2015-Aug-26 22:31N 54°40' W 005°40'0 0.0
2015-Aug-26 21:32N 54°40' W 005°40'0 0.0
2015-Aug-26 20:32N 54°40' W 005°40'0 0.0
2015-Aug-26 19:31N 54°40' W 005°40'0 0.0
2015-Aug-26 18:28N 54°40' W 005°40'0 0.0
2015-Aug-26 17:31N 54°40' W 005°40'0 0.0
2015-Aug-26 16:32N 54°40' W 005°40'6 6.2
2015-Aug-26 15:33N 54°42' W 005°30'9 8.8
2015-Aug-26 14:33N 54°34' W 005°25'1010.1
2015-Aug-26 13:33N 54°24' W 005°21'1010.0
2015-Aug-26 12:33N 54°15' W 005°26'1010.0
2015-Aug-26 11:33N 54°05' W 005°33'8710.3
2015-Aug-26 03:07N 52°40' W 006°00'611.2
2015-Aug-26 02:33N 52°33' W 006°00'1110.5
2015-Aug-26 01:33N 52°23' W 005°60'9 9.5
2015-Aug-26 00:33N 52°13' W 005°59'8 8.2
2015-Aug-25 23:34N 52°05' W 006°02'  
Track history (hours):
 
Tides and Currents Weather Stations Pressure Air Temp Water Temp Dewpoint Dewpoint Depression Visibility Wind Speed Wind Dir Waves Ship Positions

Hertfordshire

Last reported at 2015-Sep-04 16:34 UTC. Time now 2015-Sep-04 16:39 UTC.
Position N 53°33' W 003°22'.

Length 83 m; draft 3.6 m.

Type: Cargo ship. MMSI: 236563000.

Date/timePositionNaut miles runAvg speedWind from/ knotsBaromVisibWave heightAir tempDewpointWater temp
2015-Sep-04 16:34N 53°33' W 003°22'10 9.7
2015-Sep-04 15:33N 53°31' W 003°06'9 8.7
2015-Sep-04 14:33N 53°23' W 002°60'4 4.2
2015-Sep-04 13:33N 53°19' W 002°57'6 5.6
2015-Sep-04 12:33N 53°18' W 002°48'3 3.0
2015-Sep-04 11:30N 53°20' W 002°45'0 0.0
2015-Sep-04 10:30N 53°20' W 002°45'0 0.0
2015-Sep-04 09:30N 53°20' W 002°45'0 0.0
2015-Sep-04 08:33N 53°20' W 002°45'0 0.0
2015-Sep-04 07:33N 53°20' W 002°45'0 0.0
2015-Sep-04 06:33N 53°20' W 002°45'0 0.0
2015-Sep-04 05:33N 53°20' W 002°45'0 0.0
2015-Sep-04 04:33N 53°20' W 002°45'0 0.0
2015-Sep-04 03:33N 53°20' W 002°45'0 0.0
2015-Sep-04 02:33N 53°20' W 002°45'0 0.0
2015-Sep-04 01:33N 53°20' W 002°45'0 0.0
2015-Sep-04 00:30N 53°20' W 002°45'0 0.0
2015-Sep-03 23:33N 53°20' W 002°45'0 0.0
2015-Sep-03 22:33N 53°20' W 002°45'0 0.0
2015-Sep-03 21:30N 53°20' W 002°45'0 0.0
2015-Sep-03 20:33N 53°20' W 002°45'0 0.0
2015-Sep-03 19:33N 53°20' W 002°45'0 0.0
2015-Sep-03 18:33N 53°20' W 002°45'0 0.0
2015-Sep-03 17:30N 53°20' W 002°45'0 0.0
2015-Sep-03 16:33N 53°20' W 002°45'0 0.0
2015-Sep-03 15:33N 53°20' W 002°45'0 0.0
2015-Sep-03 14:33N 53°20' W 002°45'0 0.1
2015-Sep-03 13:33N 53°20' W 002°45'0 0.0
2015-Sep-03 12:33N 53°20' W 002°45'0 0.0
2015-Sep-03 11:30N 53°20' W 002°45'0 0.0
2015-Sep-03 10:33N 53°20' W 002°45'0 0.0
2015-Sep-03 09:33N 53°20' W 002°45'0 0.0
2015-Sep-03 08:33N 53°20' W 002°45'0 0.0
2015-Sep-03 07:33N 53°20' W 002°45'1 1.3
2015-Sep-03 06:33N 53°19' W 002°45'5 5.4
2015-Sep-03 05:33N 53°18' W 002°54'3 2.9
2015-Sep-03 04:33N 53°20' W 002°57'3 2.8
2015-Sep-03 03:33N 53°22' W 002°59'6 5.7
2015-Sep-03 02:34N 53°28' W 003°03'8 8.0
2015-Sep-03 01:33N 53°31' W 003°15'8 7.7
2015-Sep-03 00:33N 53°31' W 003°28'9 8.8
2015-Sep-02 23:33N 53°32' W 003°43'8 8.4
2015-Sep-02 22:32N 53°38' W 003°53'1 0.7
2015-Sep-02 21:33N 53°37' W 003°53'4 3.7
2015-Sep-02 20:33N 53°34' W 003°49'57 8.2
2015-Sep-02 13:32N 54°12' W 005°02'1010.2
2015-Sep-02 12:32N 54°22' W 005°10'1111.2
2015-Sep-02 11:34N 54°31' W 005°18'1212.2
2015-Sep-02 10:34N 54°42' W 005°27'1312.7
2015-Sep-02 09:33N 54°53' W 005°38'1511.8
2015-Sep-02 08:15N 55°07' W 005°51'710.7
2015-Sep-02 07:33N 55°13' W 005°58'8 8.4
2015-Sep-02 06:33N 55°20' W 006°06'7 6.7
2015-Sep-02 05:33N 55°23' W 006°17'7 7.3
2015-Sep-02 04:33N 55°29' W 006°24'7 6.6
2015-Sep-02 03:33N 55°34' W 006°31'6 6.1
2015-Sep-02 02:33N 55°40' W 006°34'6 5.7
2015-Sep-02 01:33N 55°46' W 006°33'5 0.2
2015-Sep-01 01:11N 55°51' W 006°31'710.9
2015-Sep-01 00:33N 55°44' W 006°33'1110.7
2015-Aug-31 23:33N 55°34' W 006°25'9 8.9
2015-Aug-31 22:33N 55°29' W 006°13'7 7.3
2015-Aug-31 21:33N 55°24' W 006°03'6 6.0
2015-Aug-31 20:33N 55°20' W 005°56'6 6.2
2015-Aug-31 19:33N 55°14' W 005°51'19 9.3
2015-Aug-31 17:33N 54°56' W 005°41'1110.9
2015-Aug-31 16:33N 54°46' W 005°39'10 9.7
2015-Aug-31 15:33N 54°39' W 005°51'3 0.8
2015-Aug-31 12:30N 54°37' W 005°54'0 0.0
2015-Aug-31 10:15N 54°37' W 005°54'0 0.0
2015-Aug-30 07:06N 54°37' W 005°54'0 0.0
2015-Aug-30 03:21N 54°37' W 005°54'0 0.0
2015-Aug-30 02:33N 54°37' W 005°54'0 0.0
2015-Aug-29 19:21N 54°37' W 005°54'0 0.0
2015-Aug-29 15:06N 54°37' W 005°54'0 0.0
2015-Aug-29 14:21N 54°37' W 005°54'0 0.0
2015-Aug-29 13:33N 54°37' W 005°54'0 0.0
2015-Aug-29 07:18N 54°37' W 005°54'0 0.0
2015-Aug-29 02:22N 54°37' W 005°54'0 0.0
2015-Aug-28 22:33N 54°37' W 005°54'8 8.3
2015-Aug-28 21:33N 54°42' W 005°43'3 2.6
2015-Aug-28 20:33N 54°40' W 005°40'0 0.0
2015-Aug-28 19:33N 54°40' W 005°40'0 0.0
2015-Aug-28 18:27N 54°40' W 005°40'0 0.0
2015-Aug-28 17:27N 54°40' W 005°40'0 0.0
2015-Aug-28 16:33N 54°40' W 005°40'0 0.0
2015-Aug-28 15:30N 54°40' W 005°40'0 0.0
2015-Aug-28 14:33N 54°40' W 005°40'0 0.0
2015-Aug-28 13:33N 54°40' W 005°40'0 0.0
2015-Aug-28 12:30N 54°40' W 005°40'0 0.0
2015-Aug-28 11:30N 54°40' W 005°40'0 0.0
2015-Aug-28 10:30N 54°40' W 005°40'0 0.0
2015-Aug-28 09:30N 54°40' W 005°40'0 0.0
2015-Aug-28 08:33N 54°40' W 005°40'0 0.0
2015-Aug-28 07:33N 54°40' W 005°40'0 0.0
2015-Aug-28 06:33N 54°40' W 005°40'0 0.0
2015-Aug-28 05:33N 54°40' W 005°40'0 0.0
2015-Aug-28 04:33N 54°40' W 005°40'0 0.0
2015-Aug-28 03:33N 54°40' W 005°40'0 0.0
2015-Aug-28 02:33N 54°40' W 005°40'0 0.0
2015-Aug-28 01:32N 54°40' W 005°40'0 0.0
2015-Aug-28 00:31N 54°40' W 005°40'0 0.0
2015-Aug-27 23:32N 54°40' W 005°40'0 0.0
2015-Aug-27 22:32N 54°40' W 005°40'0 0.0
2015-Aug-27 21:29N 54°40' W 005°40'0 0.0
2015-Aug-27 20:28N 54°40' W 005°40'0 0.0
2015-Aug-27 19:32N 54°40' W 005°40'0 0.0
2015-Aug-27 18:29N 54°40' W 005°40'0 0.0
2015-Aug-27 17:32N 54°40' W 005°40'0 0.0
2015-Aug-27 16:32N 54°40' W 005°40'0 0.1
2015-Aug-27 15:28N 54°40' W 005°40'0 0.1
2015-Aug-27 14:32N 54°40' W 005°40'0 0.0
2015-Aug-27 13:32N 54°40' W 005°40'0 0.0
2015-Aug-27 12:32N 54°40' W 005°40'0 0.0
2015-Aug-27 11:32N 54°40' W 005°40'0 0.0
2015-Aug-27 10:32N 54°40' W 005°40'0 0.0
2015-Aug-27 09:32N 54°40' W 005°40'0 0.0
2015-Aug-27 08:31N 54°40' W 005°40'0 0.0
2015-Aug-27 07:31N 54°40' W 005°40'0 0.0
2015-Aug-27 06:29N 54°40' W 005°40'0 0.0
2015-Aug-27 05:31N 54°40' W 005°40'0 0.0
2015-Aug-27 04:31N 54°40' W 005°40'0 0.0
2015-Aug-27 03:31N 54°40' W 005°40'0 0.1
2015-Aug-27 02:31N 54°40' W 005°40'0 0.0
2015-Aug-27 01:31N 54°40' W 005°40'0 0.0
2015-Aug-27 00:28N 54°40' W 005°40'0 0.0
2015-Aug-26 23:31N 54°40' W 005°40'0 0.0
2015-Aug-26 22:31N 54°40' W 005°40'0 0.0
2015-Aug-26 21:32N 54°40' W 005°40'0 0.0
2015-Aug-26 20:32N 54°40' W 005°40'0 0.0
2015-Aug-26 19:31N 54°40' W 005°40'0 0.0
2015-Aug-26 18:28N 54°40' W 005°40'0 0.0
2015-Aug-26 17:31N 54°40' W 005°40'0 0.0
2015-Aug-26 16:32N 54°40' W 005°40'6 6.2
2015-Aug-26 15:33N 54°42' W 005°30'9 8.8
2015-Aug-26 14:33N 54°34' W 005°25'1010.1
2015-Aug-26 13:33N 54°24' W 005°21'1010.0
2015-Aug-26 12:33N 54°15' W 005°26'1010.0
2015-Aug-26 11:33N 54°05' W 005°33'8710.3
2015-Aug-26 03:07N 52°40' W 006°00'611.2
2015-Aug-26 02:33N 52°33' W 006°00'1110.5
2015-Aug-26 01:33N 52°23' W 005°60'9 9.5
2015-Aug-26 00:33N 52°13' W 005°59'8 8.2
2015-Aug-25 23:34N 52°05' W 006°02'  

Dump ship's entire track history